createdAt,value
2023-03-03T00:02:44.547Z,0.80
2023-03-03T00:05:33.650Z,0.70
2023-03-03T00:08:21.553Z,0.30
2023-03-03T00:11:09.709Z,0.60
2023-03-03T00:14:01.156Z,1.30
2023-03-03T00:16:51.948Z,0.50
2023-03-03T00:19:42.474Z,0.40
2023-03-03T00:22:32.030Z,0.40
2023-03-03T00:25:25.984Z,0.40
2023-03-03T00:28:23.890Z,0.30
2023-03-03T00:31:16.367Z,0.30
2023-03-03T00:34:20.266Z,0.30
2023-03-03T00:37:21.185Z,0.30
2023-03-03T00:40:17.805Z,0.20
2023-03-03T00:43:17.127Z,0.10
2023-03-03T00:46:04.964Z,0.00
2023-03-03T00:48:52.978Z,-0.10
2023-03-03T00:51:40.774Z,-0.10
2023-03-03T00:54:30.972Z,-0.20
2023-03-03T00:57:20.371Z,-0.20
2023-03-03T01:00:09.326Z,-0.20
2023-03-03T01:02:57.547Z,-0.20
2023-03-03T01:05:46.367Z,0.40
2023-03-03T01:08:34.590Z,-0.10
2023-03-03T01:11:25.147Z,-0.30
2023-03-03T01:14:14.832Z,-0.40
2023-03-03T01:17:03.443Z,0.60
2023-03-03T01:19:50.939Z,-0.30
2023-03-03T01:22:41.061Z,-0.20
2023-03-03T01:25:30.401Z,-0.20
2023-03-03T01:28:19.263Z,-0.20
2023-03-03T01:31:07.490Z,-0.30
2023-03-03T01:33:57.527Z,-0.30
2023-03-03T01:36:45.115Z,-0.40
2023-03-03T01:39:33.286Z,-0.30
2023-03-03T01:42:23.568Z,-0.40
2023-03-03T01:48:02.376Z,-1.30
2023-03-03T01:50:51.875Z,-0.80
2023-03-03T01:53:40.731Z,-0.70
2023-03-03T01:56:29.483Z,-0.80
2023-03-03T01:59:19.882Z,-0.80
2023-03-03T02:02:07.779Z,-0.80
2023-03-03T02:04:57.698Z,-0.80
2023-03-03T02:07:46.349Z,-1.10
2023-03-03T02:10:36.229Z,-1.00
2023-03-03T02:13:23.538Z,-0.90
2023-03-03T02:16:11.260Z,-1.00
2023-03-03T02:18:59.685Z,-1.10
2023-03-03T02:21:48.878Z,-1.10
2023-03-03T02:24:39.312Z,-1.20
2023-03-03T02:27:29.320Z,-1.00
2023-03-03T02:30:19.508Z,-1.00
2023-03-03T02:33:07.546Z,-1.30
2023-03-03T02:35:55.839Z,-1.20
2023-03-03T02:38:52.754Z,-1.20
2023-03-03T02:41:44.388Z,-0.60
2023-03-03T02:44:34.653Z,-1.40
2023-03-03T02:47:22.071Z,-1.30
2023-03-03T02:50:12.082Z,-1.40
2023-03-03T02:53:00.010Z,-1.20
2023-03-03T02:55:48.593Z,-0.60
2023-03-03T02:58:39.052Z,-0.30
2023-03-03T03:01:29.771Z,-1.30
2023-03-03T03:04:20.738Z,-1.30
2023-03-03T03:07:11.871Z,-0.50
2023-03-03T03:09:59.811Z,-1.50
2023-03-03T03:12:49.262Z,-1.40
2023-03-03T03:15:39.487Z,-1.20
2023-03-03T03:18:28.962Z,-1.10
2023-03-03T03:21:18.121Z,0.60
2023-03-03T03:24:05.730Z,-0.80
2023-03-03T03:29:43.483Z,-0.50
2023-03-03T03:32:32.191Z,-0.50
2023-03-03T03:35:21.992Z,-0.40
2023-03-03T03:38:09.830Z,-0.30
2023-03-03T03:40:57.454Z,-0.30
2023-03-03T03:43:45.280Z,-0.10
2023-03-03T03:46:36.383Z,-0.10
2023-03-03T03:49:24.573Z,-0.10
2023-03-03T03:52:15.798Z,-0.10
2023-03-03T03:55:03.606Z,-0.10
2023-03-03T03:57:52.670Z,-0.10
2023-03-03T04:00:41.703Z,-0.10
2023-03-03T04:06:19.060Z,-0.20
2023-03-03T04:09:08.328Z,-0.20
2023-03-03T04:11:56.417Z,-0.40
2023-03-03T04:14:44.386Z,-0.40
2023-03-03T04:17:32.513Z,-0.20
2023-03-03T04:20:20.595Z,-0.40
2023-03-03T04:23:08.518Z,-0.20
2023-03-03T04:25:57.831Z,-0.30
2023-03-03T04:28:45.971Z,-0.30
2023-03-03T04:31:34.597Z,0.00
2023-03-03T04:34:23.722Z,-0.30
2023-03-03T04:37:12.210Z,-0.30
2023-03-03T04:40:00.512Z,-0.30
2023-03-03T04:42:49.984Z,-0.30
2023-03-03T04:45:37.740Z,-0.30
2023-03-03T04:48:26.090Z,-0.40
2023-03-03T04:51:13.311Z,-0.30
2023-03-03T04:54:00.436Z,-0.30
2023-03-03T04:56:53.533Z,-0.30
2023-03-03T04:59:43.034Z,-0.30
2023-03-03T05:02:31.619Z,-0.30
2023-03-03T05:05:19.431Z,-0.30
2023-03-03T05:08:07.245Z,-0.30
2023-03-03T05:10:55.532Z,-0.30
2023-03-03T05:13:43.985Z,-0.30
2023-03-03T05:16:32.942Z,-0.30
2023-03-03T05:19:21.177Z,-0.20
2023-03-03T05:22:08.798Z,-0.20
2023-03-03T05:24:57.857Z,-0.30
2023-03-03T05:27:46.216Z,-0.30
2023-03-03T05:30:34.162Z,-0.20
2023-03-03T05:33:24.547Z,-0.20
2023-03-03T05:36:12.993Z,-0.20
2023-03-03T05:39:00.831Z,-0.20
2023-03-03T05:41:49.485Z,-0.20
2023-03-03T05:44:37.530Z,-0.30
2023-03-03T05:47:25.106Z,-0.30
2023-03-03T06:04:16.461Z,-0.30
2023-03-03T06:07:05.011Z,-0.30
2023-03-03T06:18:24.164Z,-0.30
2023-03-03T06:21:14.004Z,-0.30
2023-03-03T06:24:04.950Z,-0.40
2023-03-03T06:26:52.680Z,-0.40
2023-03-03T06:32:30.472Z,-0.30
2023-03-03T06:35:18.595Z,-0.40
2023-03-03T06:38:13.264Z,-0.40
2023-03-03T06:41:06.954Z,-0.40
2023-03-03T06:43:55.352Z,-0.40
2023-03-03T06:46:48.161Z,-0.50
2023-03-03T07:03:37.328Z,-0.60
2023-03-03T07:06:26.529Z,-0.60
2023-03-03T07:09:20.475Z,-0.60
2023-03-03T07:12:11.691Z,-0.40
2023-03-03T07:20:42.530Z,-0.50
2023-03-03T07:23:34.923Z,-0.50
2023-03-03T07:26:25.129Z,-0.50
2023-03-03T07:29:18.468Z,-0.40
2023-03-03T07:34:57.868Z,-0.30
2023-03-03T07:37:47.509Z,-0.30
2023-03-03T07:46:32.413Z,-0.30
2023-03-03T07:49:24.444Z,-0.30
2023-03-03T07:52:27.490Z,-0.30
2023-03-03T07:58:17.251Z,-0.30
2023-03-03T08:03:53.305Z,-0.20
2023-03-03T08:09:39.793Z,-0.10
2023-03-03T08:12:32.419Z,-0.10
2023-03-03T08:15:22.707Z,0.00
2023-03-03T08:18:18.126Z,0.00
2023-03-03T08:21:10.066Z,0.00
2023-03-03T08:23:58.738Z,0.10
2023-03-03T08:26:46.701Z,0.10
2023-03-03T08:29:35.392Z,0.10
2023-03-03T08:32:24.986Z,0.20
2023-03-03T08:35:13.134Z,0.20
2023-03-03T08:38:05.290Z,0.20
2023-03-03T08:40:55.853Z,0.20
2023-03-03T08:43:47.650Z,0.20
2023-03-03T08:46:36.094Z,0.20
2023-03-03T08:49:25.314Z,0.20
2023-03-03T08:52:13.588Z,0.30
2023-03-03T08:55:04.359Z,0.20
2023-03-03T08:57:53.080Z,0.40
2023-03-03T09:00:41.032Z,0.40
2023-03-03T09:03:29.141Z,0.40
2023-03-03T09:06:20.980Z,0.40
2023-03-03T09:09:08.722Z,1.80
2023-03-03T09:11:59.371Z,0.50
2023-03-03T09:14:48.413Z,0.60
2023-03-03T09:17:40.651Z,0.60
2023-03-03T09:20:35.971Z,0.50
2023-03-03T09:23:38.212Z,0.60
2023-03-03T09:26:36.195Z,0.60
2023-03-03T09:29:26.536Z,0.70
2023-03-03T09:32:22.810Z,0.60
2023-03-03T09:35:30.265Z,0.80
2023-03-03T09:38:28.981Z,0.80
2023-03-03T09:41:34.552Z,0.80
2023-03-03T09:44:28.160Z,0.80
2023-03-03T09:47:26.341Z,0.80
2023-03-03T09:50:22.115Z,0.90
2023-03-03T09:53:19.483Z,1.00
2023-03-03T09:56:17.802Z,0.90
2023-03-03T09:59:11.823Z,1.20
2023-03-03T10:02:08.578Z,1.20
2023-03-03T10:05:00.903Z,1.20
2023-03-03T10:07:57.226Z,1.20
2023-03-03T10:10:49.258Z,1.20
2023-03-03T10:13:43.689Z,1.20
2023-03-03T10:16:46.271Z,1.20
2023-03-03T10:19:39.001Z,1.30
2023-03-03T10:22:34.977Z,1.40
2023-03-03T10:25:28.103Z,1.30
2023-03-03T10:28:32.923Z,1.40
2023-03-03T10:31:28.418Z,1.40
2023-03-03T10:34:24.287Z,1.40
2023-03-03T10:37:21.396Z,1.60
2023-03-03T10:40:14.845Z,1.70
2023-03-03T10:43:15.328Z,1.70
2023-03-03T10:46:34.029Z,1.70
2023-03-03T10:49:25.681Z,1.80
2023-03-03T10:52:23.598Z,1.80
2023-03-03T10:55:26.444Z,1.70
2023-03-03T10:58:38.389Z,2.00
2023-03-03T11:01:39.186Z,2.00
2023-03-03T11:04:51.663Z,2.00
2023-03-03T11:07:44.198Z,2.00
2023-03-03T11:10:48.604Z,1.90
2023-03-03T11:13:42.359Z,2.10
2023-03-03T11:16:35.145Z,2.20
2023-03-03T11:19:30.877Z,2.40
2023-03-03T11:22:23.314Z,2.30
2023-03-03T11:25:18.203Z,2.40
2023-03-03T11:28:19.538Z,2.40
2023-03-03T11:31:12.009Z,2.50
2023-03-03T11:34:03.049Z,2.20
2023-03-03T11:36:52.626Z,2.70
2023-03-03T11:39:40.409Z,2.50
2023-03-03T11:42:35.663Z,2.70
2023-03-03T11:45:26.671Z,3.10
2023-03-03T11:48:18.997Z,2.80
2023-03-03T11:51:07.945Z,2.70
2023-03-03T11:54:02.376Z,3.00
2023-03-03T11:56:50.528Z,3.20
2023-03-03T11:59:55.449Z,3.40
2023-03-03T12:03:00.024Z,3.30
2023-03-03T12:05:55.263Z,3.20
2023-03-03T12:08:53.955Z,3.10
2023-03-03T12:11:48.048Z,3.30
2023-03-03T12:14:46.053Z,3.30
2023-03-03T12:17:53.299Z,3.40
2023-03-03T12:20:46.068Z,3.50
2023-03-03T12:23:46.042Z,3.50
2023-03-03T12:26:43.419Z,3.90
2023-03-03T12:29:38.655Z,3.90
2023-03-03T12:32:35.469Z,3.80
2023-03-03T12:35:29.328Z,3.60
2023-03-03T12:38:56.290Z,3.80
2023-03-03T12:41:46.913Z,4.30
2023-03-03T12:44:37.007Z,4.00
2023-03-03T12:47:26.491Z,3.90
2023-03-03T12:50:26.828Z,4.10
2023-03-03T12:53:22.144Z,4.90
2023-03-03T12:56:14.680Z,4.10
2023-03-03T12:59:06.273Z,6.10
2023-03-03T13:02:22.094Z,4.20
2023-03-03T13:05:17.612Z,4.30
2023-03-03T13:08:31.432Z,4.40
2023-03-03T13:14:17.555Z,4.60
2023-03-03T13:17:17.123Z,4.70
2023-03-03T13:20:08.550Z,4.70
2023-03-03T13:22:59.896Z,4.70
2023-03-03T13:25:50.998Z,5.40
2023-03-03T13:28:40.471Z,5.10
2023-03-03T13:31:33.659Z,5.00
2023-03-03T13:34:26.560Z,6.20
2023-03-03T13:37:23.449Z,5.80
2023-03-03T13:40:17.147Z,6.30
2023-03-03T13:43:10.415Z,6.80
2023-03-03T13:46:05.863Z,6.30
2023-03-03T13:49:18.740Z,6.40
2023-03-03T13:52:10.650Z,6.50
2023-03-03T13:55:03.880Z,6.60
2023-03-03T13:58:02.184Z,6.10
2023-03-03T14:00:57.849Z,6.60
2023-03-03T14:03:57.110Z,6.40
2023-03-03T14:06:50.085Z,6.70
2023-03-03T14:09:45.996Z,7.00
2023-03-03T14:12:39.771Z,7.20
2023-03-03T14:15:30.963Z,7.10
2023-03-03T14:18:29.857Z,7.30
2023-03-03T14:21:19.868Z,7.80
2023-03-03T14:24:11.398Z,7.80
2023-03-03T14:26:59.761Z,7.70
2023-03-03T14:29:47.636Z,7.90
2023-03-03T14:32:45.085Z,7.80
2023-03-03T14:35:34.659Z,8.10
2023-03-03T14:38:24.894Z,7.60
2023-03-03T14:41:18.854Z,8.00
2023-03-03T14:44:25.392Z,11.20
2023-03-03T14:47:27.754Z,8.40
2023-03-03T14:50:32.684Z,7.80
2023-03-03T14:53:32.178Z,7.10
2023-03-03T14:56:25.510Z,8.60
2023-03-03T14:59:18.967Z,7.80
2023-03-03T15:02:29.914Z,8.20
2023-03-03T15:05:21.007Z,8.00
2023-03-03T15:08:11.176Z,9.10
2023-03-03T15:11:13.015Z,7.70
2023-03-03T15:16:53.398Z,7.60
2023-03-03T15:19:46.104Z,7.60
2023-03-03T15:22:50.419Z,7.50
2023-03-03T15:25:44.055Z,7.60
2023-03-03T15:28:36.724Z,6.70
2023-03-03T15:31:32.392Z,6.90
2023-03-03T15:37:19.733Z,6.40
2023-03-03T15:40:19.580Z,6.50
2023-03-03T15:43:10.806Z,6.40
2023-03-03T15:46:06.834Z,6.50
2023-03-03T15:48:59.800Z,6.60
2023-03-03T15:52:03.090Z,6.50
2023-03-03T15:54:57.739Z,6.40
2023-03-03T15:57:53.175Z,6.30
2023-03-03T16:00:49.691Z,6.30
2023-03-03T16:03:40.002Z,6.40
2023-03-03T16:06:32.370Z,6.70
2023-03-03T16:09:26.545Z,6.60
2023-03-03T16:12:18.602Z,6.60
2023-03-03T16:15:14.021Z,6.00
2023-03-03T16:18:05.625Z,6.30
2023-03-03T16:20:58.858Z,6.80
2023-03-03T16:23:48.470Z,6.30
2023-03-03T16:26:42.551Z,6.20
2023-03-03T16:29:37.114Z,6.20
2023-03-03T16:32:28.605Z,6.20
2023-03-03T16:35:22.854Z,6.20
2023-03-03T16:38:14.117Z,6.20
2023-03-03T16:41:02.979Z,6.10
2023-03-03T16:43:56.591Z,6.10
2023-03-03T16:46:47.582Z,6.10
2023-03-03T16:49:38.705Z,6.30
2023-03-03T16:52:30.345Z,6.00
2023-03-03T16:55:20.876Z,6.00
2023-03-03T16:58:14.369Z,6.20
2023-03-03T17:01:09.814Z,6.30
2023-03-03T17:04:03.631Z,6.10
2023-03-03T17:06:55.909Z,6.30
2023-03-03T17:09:56.220Z,6.00
2023-03-03T17:13:15.975Z,8.10
2023-03-03T17:16:10.608Z,5.70
2023-03-03T17:19:02.056Z,5.00
2023-03-03T17:21:58.702Z,5.00
2023-03-03T17:24:50.595Z,4.90
2023-03-03T17:27:47.536Z,4.60
2023-03-03T17:30:39.695Z,4.50
2023-03-03T17:33:34.059Z,4.40
2023-03-03T17:36:27.358Z,3.70
2023-03-03T17:39:29.013Z,4.40
2023-03-03T17:42:22.066Z,4.10
2023-03-03T17:45:10.507Z,4.10
2023-03-03T17:48:07.783Z,2.90
2023-03-03T17:51:07.118Z,4.10
2023-03-03T17:54:05.429Z,2.40
2023-03-03T17:57:00.651Z,4.00
2023-03-03T18:00:03.991Z,4.10
2023-03-03T18:03:09.732Z,4.20
2023-03-03T18:06:16.145Z,4.20
2023-03-03T18:09:15.145Z,4.40
2023-03-03T18:12:09.699Z,4.50
2023-03-03T18:15:12.025Z,4.50
2023-03-03T18:18:07.664Z,5.20
2023-03-03T18:21:01.784Z,4.70
2023-03-03T18:23:50.487Z,4.70
2023-03-03T18:26:40.206Z,4.80
2023-03-03T18:29:32.157Z,4.70
2023-03-03T18:32:21.532Z,4.70
2023-03-03T18:35:25.176Z,6.50
2023-03-03T18:38:34.947Z,4.80
2023-03-03T18:41:28.451Z,4.90
2023-03-03T18:44:27.932Z,4.80
2023-03-03T18:47:21.076Z,8.60
2023-03-03T18:50:18.137Z,5.00
2023-03-03T18:53:21.157Z,4.80
2023-03-03T18:56:11.605Z,5.00
2023-03-03T18:59:00.045Z,4.90
2023-03-03T19:01:52.009Z,4.90
2023-03-03T19:04:45.412Z,4.80
2023-03-03T19:07:47.973Z,5.50
2023-03-03T19:10:55.471Z,4.60
2023-03-03T19:13:44.704Z,4.50
2023-03-03T19:16:36.887Z,4.50
2023-03-03T19:19:27.651Z,4.40
2023-03-03T19:22:26.980Z,5.00
2023-03-03T19:25:22.353Z,4.40
2023-03-03T19:28:29.270Z,4.10
2023-03-03T19:31:19.849Z,5.90
2023-03-03T19:34:08.940Z,4.40
2023-03-03T19:37:05.586Z,4.40
2023-03-03T19:40:01.255Z,2.30
2023-03-03T19:43:00.721Z,4.30
2023-03-03T19:45:53.770Z,4.30
2023-03-03T19:48:44.531Z,4.40
2023-03-03T19:51:38.814Z,4.30
2023-03-03T19:54:37.754Z,4.30
2023-03-03T19:57:36.197Z,4.40
2023-03-03T20:00:27.503Z,4.40
2023-03-03T20:03:31.408Z,4.50
2023-03-03T20:06:23.972Z,4.50
2023-03-03T20:09:18.003Z,4.40
2023-03-03T20:12:12.386Z,4.40
2023-03-03T20:15:09.771Z,4.60
2023-03-03T20:18:09.858Z,4.70
2023-03-03T20:21:15.769Z,5.20
2023-03-03T20:24:17.687Z,6.10
2023-03-03T20:27:07.363Z,4.80
2023-03-03T20:30:00.840Z,4.80
2023-03-03T20:32:55.763Z,4.80
2023-03-03T20:35:50.994Z,5.10
2023-03-03T20:38:44.353Z,5.10
2023-03-03T20:41:38.981Z,4.90
2023-03-03T20:44:35.542Z,4.90
2023-03-03T20:47:30.860Z,4.90
2023-03-03T20:50:25.433Z,4.90
2023-03-03T20:53:19.918Z,5.00
2023-03-03T20:56:12.276Z,5.10
2023-03-03T20:59:08.419Z,5.10
2023-03-03T21:02:00.348Z,5.10
2023-03-03T21:05:07.425Z,5.10
2023-03-03T21:07:58.246Z,5.10
2023-03-03T21:11:03.663Z,5.20
2023-03-03T21:13:52.135Z,5.10
2023-03-03T21:16:42.281Z,5.10
2023-03-03T21:19:30.772Z,5.10
2023-03-03T21:22:19.026Z,5.10
2023-03-03T21:25:13.525Z,5.10
2023-03-03T21:28:16.716Z,5.10
2023-03-03T21:31:18.457Z,3.40
2023-03-03T21:34:21.314Z,5.10
2023-03-03T21:37:11.680Z,5.10
2023-03-03T21:40:14.788Z,5.20
2023-03-03T21:43:06.009Z,5.10
2023-03-03T21:45:53.820Z,5.10
2023-03-03T21:48:42.977Z,5.20
2023-03-03T21:51:30.500Z,5.10
2023-03-03T21:54:18.936Z,5.10
2023-03-03T21:57:10.200Z,5.20
2023-03-03T21:59:58.664Z,5.20
2023-03-03T22:02:47.421Z,5.10
2023-03-03T22:05:35.974Z,5.10
2023-03-03T22:08:24.511Z,5.10
2023-03-03T22:11:15.524Z,5.10
2023-03-03T22:14:06.930Z,3.00
2023-03-03T22:16:56.040Z,5.10
2023-03-03T22:19:47.465Z,5.30
2023-03-03T22:22:37.011Z,5.20
2023-03-03T22:25:25.550Z,5.20
2023-03-03T22:28:13.630Z,6.00
2023-03-03T22:31:03.529Z,5.00
2023-03-03T22:33:51.809Z,5.00
2023-03-03T22:36:43.123Z,4.90
2023-03-03T22:39:30.901Z,5.30
2023-03-03T22:42:18.909Z,5.00
2023-03-03T22:45:07.421Z,5.00
2023-03-03T22:47:56.930Z,4.90
2023-03-03T22:50:45.764Z,5.00
2023-03-03T22:53:34.406Z,4.90
2023-03-03T22:56:22.707Z,5.00
2023-03-03T22:59:11.985Z,5.00
2023-03-03T23:02:02.418Z,4.70
2023-03-03T23:04:58.364Z,4.90
2023-03-03T23:07:46.432Z,4.90
2023-03-03T23:10:35.323Z,5.80
2023-03-03T23:13:23.373Z,4.80
2023-03-03T23:16:11.166Z,4.80
2023-03-03T23:18:59.044Z,4.90
2023-03-03T23:21:48.297Z,4.80
2023-03-03T23:24:36.018Z,4.80
2023-03-03T23:27:24.449Z,4.90
2023-03-03T23:30:13.836Z,4.90
2023-03-03T23:33:02.183Z,5.50
2023-03-03T23:35:50.237Z,5.40
2023-03-03T23:38:42.625Z,4.80
2023-03-03T23:41:32.082Z,4.80
2023-03-03T23:44:20.464Z,4.80
2023-03-03T23:47:10.565Z,4.80
2023-03-03T23:49:59.233Z,4.80
2023-03-03T23:52:47.722Z,4.70
2023-03-03T23:55:37.821Z,4.90
2023-03-03T23:58:26.043Z,4.80
